createdAt,value
2022-08-09T00:00:34.191Z,82.87
2022-08-09T00:01:48.358Z,83.37
2022-08-09T00:02:34.747Z,83.58
2022-08-09T00:04:06.166Z,83.68
2022-08-09T00:04:35.619Z,83.17
2022-08-09T00:06:17.559Z,83.47
2022-08-09T00:06:34.450Z,83.37
2022-08-09T00:07:44.550Z,83.58
2022-08-09T00:08:34.523Z,83.37
2022-08-09T00:09:34.564Z,83.47
2022-08-09T00:10:34.622Z,83.58
2022-08-09T00:12:04.057Z,83.68
2022-08-09T00:12:34.910Z,83.58
2022-08-09T00:13:38.465Z,83.78
2022-08-09T00:14:37.909Z,83.47
2022-08-09T00:15:57.953Z,83.88
2022-08-09T00:16:36.667Z,84.19
2022-08-09T00:18:10.345Z,84.19
2022-08-09T00:18:36.026Z,84.08
2022-08-09T00:19:34.878Z,84.28
2022-08-09T00:20:34.927Z,84.28
2022-08-09T00:21:34.938Z,84.39
2022-08-09T00:22:36.373Z,84.39
2022-08-09T00:23:55.684Z,84.48
2022-08-09T00:24:35.049Z,84.69
2022-08-09T00:25:35.039Z,84.39
2022-08-09T00:26:35.048Z,84.89
2022-08-09T00:27:36.211Z,85.19
2022-08-09T00:28:35.173Z,84.79
2022-08-09T00:30:10.417Z,84.99
2022-08-09T00:30:35.131Z,84.69
2022-08-09T00:31:58.681Z,84.89
2022-08-09T00:32:35.232Z,84.59
2022-08-09T00:33:51.178Z,85.03
2022-08-09T00:34:35.299Z,85.44
2022-08-09T00:35:42.997Z,85.44
2022-08-09T00:36:35.354Z,85.74
2022-08-09T00:37:35.325Z,85.94
2022-08-09T00:38:35.388Z,86.25
2022-08-09T00:40:12.838Z,85.44
2022-08-09T00:40:35.484Z,85.84
2022-08-09T00:44:13.224Z,86.25
2022-08-09T00:44:16.064Z,85.84
2022-08-09T00:44:16.260Z,85.74
2022-08-09T00:44:35.584Z,86.45
2022-08-09T00:45:35.607Z,86.55
2022-08-09T00:46:57.658Z,86.55
2022-08-09T00:47:39.584Z,86.76
2022-08-09T00:48:35.755Z,86.76
2022-08-09T00:49:36.792Z,87.05
2022-08-09T00:50:37.822Z,87.16
2022-08-09T00:51:42.657Z,87.16
2022-08-09T00:52:36.390Z,87.05
2022-08-09T00:53:36.228Z,87.26
2022-08-09T00:54:36.651Z,87.05
2022-08-09T00:56:03.612Z,87.16
2022-08-09T00:56:36.092Z,86.96
2022-08-09T00:57:36.129Z,86.90
2022-08-09T00:58:36.190Z,87.20
2022-08-09T00:59:41.012Z,87.10
2022-08-09T01:00:36.219Z,87.81
2022-08-09T01:01:44.294Z,87.81
2022-08-09T01:02:36.280Z,87.30
2022-08-09T01:03:36.428Z,87.20
2022-08-09T01:04:36.322Z,88.01
2022-08-09T01:05:51.561Z,88.01
2022-08-09T01:06:54.648Z,88.01
2022-08-09T01:07:37.705Z,87.81
2022-08-09T01:08:36.855Z,88.31
2022-08-09T01:09:37.182Z,88.21
2022-08-09T01:10:36.494Z,88.21
2022-08-09T01:11:36.544Z,88.51
2022-08-09T01:12:36.594Z,88.51
2022-08-09T01:13:41.640Z,88.72
2022-08-09T01:14:36.675Z,88.62
2022-08-09T01:15:37.251Z,88.42
2022-08-09T01:16:36.811Z,88.72
2022-08-09T01:17:36.775Z,89.23
2022-08-09T01:18:36.833Z,89.23
2022-08-09T01:19:39.873Z,89.63
2022-08-09T01:20:36.855Z,89.53
2022-08-09T01:21:44.701Z,89.23
2022-08-09T01:22:36.970Z,89.73
2022-08-09T01:24:03.012Z,90.14
2022-08-09T01:24:37.047Z,89.94
2022-08-09T01:25:41.546Z,89.94
2022-08-09T01:26:37.147Z,90.03
2022-08-09T01:27:37.197Z,90.03
2022-08-09T01:28:37.238Z,90.44
2022-08-09T01:29:41.066Z,90.24
2022-08-09T01:30:52.222Z,90.24
2022-08-09T01:32:31.153Z,90.84
2022-08-09T01:32:37.439Z,90.54
2022-08-09T01:33:37.488Z,90.75
2022-08-09T01:34:37.777Z,90.75
2022-08-09T01:35:39.126Z,90.84
2022-08-09T01:36:37.589Z,91.25
2022-08-09T01:38:05.833Z,91.09
2022-08-09T01:38:38.499Z,91.19
2022-08-09T01:39:37.738Z,91.50
2022-08-09T01:40:37.762Z,91.70
2022-08-09T01:41:37.802Z,91.60
2022-08-09T01:42:37.841Z,91.80
2022-08-09T01:43:42.001Z,91.80
2022-08-09T01:44:37.932Z,91.90
2022-08-09T01:45:46.392Z,92.21
2022-08-09T01:46:38.043Z,92.21
2022-08-09T01:47:44.825Z,92.21
2022-08-09T01:48:38.139Z,92.10
2022-08-09T01:49:39.062Z,92.55
2022-08-09T01:50:41.863Z,92.65
2022-08-09T01:51:38.144Z,92.61
2022-08-09T01:52:38.213Z,92.71
2022-08-09T01:53:41.862Z,92.51
2022-08-09T01:54:38.285Z,92.71
2022-08-09T01:55:38.763Z,92.51
2022-08-09T01:56:38.355Z,92.91
2022-08-09T01:57:40.318Z,92.71
2022-08-09T01:58:38.425Z,92.61
2022-08-09T01:59:40.911Z,92.82
2022-08-09T02:00:38.506Z,92.76
2022-08-09T02:01:59.898Z,92.86
2022-08-09T02:02:38.609Z,93.16
2022-08-09T02:03:38.648Z,92.86
2022-08-09T02:04:45.633Z,93.16
2022-08-09T02:06:03.975Z,93.37
2022-08-09T02:06:38.740Z,93.46
2022-08-09T02:08:35.299Z,93.97
2022-08-09T02:08:59.118Z,94.18
2022-08-09T02:09:42.306Z,94.18
2022-08-09T02:10:38.891Z,94.12
2022-08-09T02:11:41.969Z,94.02
2022-08-09T02:12:39.187Z,94.02
2022-08-09T02:13:40.698Z,94.22
2022-08-09T02:14:38.952Z,94.93
2022-08-09T02:15:49.318Z,95.34
2022-08-09T02:16:52.978Z,95.34
2022-08-09T02:18:09.804Z,95.13
2022-08-09T02:18:42.759Z,95.03
2022-08-09T02:19:43.171Z,95.18
2022-08-09T02:20:39.152Z,95.38
2022-08-09T02:21:39.133Z,95.68
2022-08-09T02:22:39.499Z,95.89
2022-08-09T02:23:39.891Z,95.68
2022-08-09T02:24:39.243Z,95.99
2022-08-09T02:25:42.600Z,96.19
2022-08-09T02:26:39.342Z,96.30
2022-08-09T02:27:57.381Z,95.89
2022-08-09T02:28:39.364Z,96.03
2022-08-09T02:29:39.404Z,96.14
2022-08-09T02:30:41.515Z,96.34
2022-08-09T02:31:39.445Z,96.84
2022-08-09T02:32:39.496Z,96.95
2022-08-09T02:34:06.279Z,96.95
2022-08-09T02:34:41.269Z,97.20
2022-08-09T02:36:02.875Z,97.20
2022-08-09T02:36:39.696Z,97.30
2022-08-09T02:37:39.717Z,97.40
2022-08-09T02:38:39.758Z,97.71
2022-08-09T02:39:45.245Z,97.80
2022-08-09T02:40:39.899Z,97.80
2022-08-09T02:41:39.919Z,97.80
2022-08-09T02:42:39.890Z,97.60
2022-08-09T02:43:53.445Z,97.71
2022-08-09T02:44:39.969Z,98.32
2022-08-09T02:45:39.970Z,98.72
2022-08-09T02:46:40.032Z,98.72
2022-08-09T02:47:57.613Z,98.72
2022-08-09T02:48:40.131Z,98.82
2022-08-09T02:49:41.089Z,98.82
2022-08-09T02:50:40.222Z,98.82
2022-08-09T02:51:40.844Z,98.92
2022-08-09T02:52:40.272Z,98.72
2022-08-09T02:53:43.098Z,98.72
2022-08-09T02:54:51.219Z,98.72
2022-08-09T02:55:57.345Z,98.82
2022-08-09T02:56:40.404Z,98.92
2022-08-09T02:58:00.246Z,98.97
2022-08-09T02:58:40.483Z,98.97
2022-08-09T02:59:40.483Z,98.97
2022-08-09T03:00:57.588Z,98.97
2022-08-09T03:01:42.643Z,98.97
2022-08-09T03:02:58.666Z,99.07
2022-08-09T03:04:16.923Z,98.91
2022-08-09T03:04:40.701Z,99.11
2022-08-09T03:05:40.679Z,99.42
2022-08-09T03:06:40.725Z,99.63
2022-08-09T03:07:40.789Z,99.73
2022-08-09T03:08:40.825Z,99.99
2022-08-09T03:09:42.999Z,99.99
2022-08-09T03:10:40.964Z,99.99
2022-08-09T03:12:06.437Z,99.99
2022-08-09T03:12:41.025Z,99.93
2022-08-09T03:13:43.618Z,99.83
2022-08-09T03:14:41.098Z,99.99
2022-08-09T03:16:06.913Z,99.99
2022-08-09T03:16:45.122Z,99.99
2022-08-09T03:17:41.149Z,99.99
2022-08-09T03:18:41.198Z,99.99
2022-08-09T03:19:59.617Z,99.99
2022-08-09T03:20:41.240Z,99.99
2022-08-09T03:21:41.280Z,99.99
2022-08-09T03:22:43.601Z,99.99
2022-08-09T03:23:41.341Z,99.99
2022-08-09T03:24:42.696Z,99.99
2022-08-09T03:25:59.213Z,99.99
2022-08-09T03:26:45.038Z,99.99
2022-08-09T03:27:45.508Z,99.99
2022-08-09T03:28:43.544Z,99.99
2022-08-09T03:29:57.050Z,99.99
2022-08-09T03:30:43.517Z,99.99
2022-08-09T03:31:42.447Z,99.99
2022-08-09T03:32:41.603Z,99.99
2022-08-09T03:33:54.031Z,99.99
2022-08-09T03:34:41.703Z,99.99
2022-08-09T03:36:11.398Z,99.99
2022-08-09T03:36:41.763Z,99.99
2022-08-09T03:37:55.317Z,99.99
2022-08-09T03:38:43.239Z,99.99
2022-08-09T03:39:41.959Z,99.99
2022-08-09T03:40:41.974Z,99.99
2022-08-09T03:41:48.287Z,99.99
2022-08-09T03:42:42.924Z,99.99
2022-08-09T03:43:42.474Z,99.99
2022-08-09T03:44:42.096Z,99.99
2022-08-09T03:46:04.919Z,99.99
2022-08-09T03:46:42.139Z,99.99
2022-08-09T03:47:46.258Z,99.99
2022-08-09T03:48:42.898Z,99.99
2022-08-09T03:49:42.157Z,99.99
2022-08-09T03:50:42.188Z,99.99
2022-08-09T03:51:57.745Z,99.99
2022-08-09T03:52:42.268Z,99.99
2022-08-09T03:53:42.272Z,99.99
2022-08-09T03:54:42.350Z,99.99
2022-08-09T03:55:42.519Z,99.99
2022-08-09T03:56:42.345Z,99.99
2022-08-09T03:57:53.574Z,99.99
2022-08-09T03:58:42.350Z,99.99
2022-08-09T03:59:53.441Z,99.99
2022-08-09T04:00:42.494Z,99.99
2022-08-09T04:01:42.482Z,99.99
2022-08-09T04:02:44.980Z,99.99
2022-08-09T04:04:01.035Z,99.99
2022-08-09T04:04:45.594Z,99.99
2022-08-09T04:05:42.630Z,99.99
2022-08-09T04:06:48.941Z,99.99
2022-08-09T04:07:52.461Z,99.99
2022-08-09T04:08:46.485Z,99.99
2022-08-09T04:09:47.940Z,99.99
2022-08-09T04:10:42.796Z,99.99
2022-08-09T04:11:42.854Z,99.99
2022-08-09T04:12:44.381Z,99.99
2022-08-09T04:14:36.792Z,99.99
2022-08-09T04:15:01.153Z,99.99
2022-08-09T04:16:19.334Z,99.99
2022-08-09T04:16:43.035Z,99.99
2022-08-09T04:17:43.086Z,99.99
2022-08-09T04:18:43.079Z,99.99
2022-08-09T04:19:51.439Z,99.99
2022-08-09T04:20:43.096Z,99.99
2022-08-09T04:21:43.148Z,99.99
2022-08-09T04:22:44.216Z,99.99
2022-08-09T04:23:54.551Z,99.99
2022-08-09T04:24:43.270Z,99.99
2022-08-09T04:25:43.327Z,99.99
2022-08-09T04:26:43.378Z,99.99
2022-08-09T04:27:46.654Z,99.99
2022-08-09T04:28:46.821Z,99.99
2022-08-09T04:29:49.864Z,99.99
2022-08-09T04:30:44.900Z,99.99
2022-08-09T04:31:46.776Z,99.99
2022-08-09T04:32:46.729Z,99.99
2022-08-09T04:33:52.132Z,99.99
2022-08-09T04:34:47.750Z,99.99
2022-08-09T04:35:43.682Z,99.99
2022-08-09T04:36:50.004Z,99.99
2022-08-09T04:37:45.296Z,99.99
2022-08-09T04:38:43.761Z,99.99
2022-08-09T04:39:43.800Z,99.99
2022-08-09T04:40:43.857Z,99.99
2022-08-09T04:41:44.127Z,99.99
2022-08-09T04:42:43.852Z,99.99
2022-08-09T04:43:53.770Z,99.99
2022-08-09T04:44:49.302Z,99.99
2022-08-09T04:45:53.056Z,99.99
2022-08-09T04:46:59.387Z,99.99
2022-08-09T04:47:59.393Z,99.99
2022-08-09T04:48:57.477Z,99.99
2022-08-09T04:49:54.593Z,99.99
2022-08-09T04:50:43.967Z,99.99
2022-08-09T04:51:44.005Z,99.94
2022-08-09T04:52:43.996Z,99.84
2022-08-09T04:53:43.985Z,99.84
2022-08-09T04:54:44.005Z,99.84
2022-08-09T04:55:59.146Z,99.74
2022-08-09T04:56:44.057Z,99.74
2022-08-09T04:57:58.701Z,99.58
2022-08-09T04:58:44.068Z,99.49
2022-08-09T04:59:44.097Z,99.28
2022-08-09T05:00:44.118Z,99.18
2022-08-09T05:01:44.196Z,99.08
2022-08-09T05:02:44.287Z,98.97
2022-08-09T05:03:44.346Z,98.97
2022-08-09T05:04:44.296Z,98.77
2022-08-09T05:05:52.179Z,98.68
2022-08-09T05:06:44.360Z,98.57
2022-08-09T05:07:44.355Z,98.43
2022-08-09T05:08:47.816Z,98.32
2022-08-09T05:09:49.712Z,98.22
2022-08-09T05:10:44.585Z,98.12
2022-08-09T05:11:44.469Z,98.12
2022-08-09T05:12:44.481Z,98.02
2022-08-09T05:13:44.464Z,97.81
2022-08-09T05:14:44.492Z,97.61
2022-08-09T05:15:47.989Z,97.61
2022-08-09T05:16:59.402Z,97.61
2022-08-09T05:18:38.258Z,97.31
2022-08-09T05:18:57.159Z,97.26
2022-08-09T05:19:46.169Z,97.06
2022-08-09T05:20:44.781Z,96.61
2022-08-09T05:21:47.103Z,96.06
2022-08-09T05:23:54.379Z,94.00
2022-08-09T05:23:58.608Z,90.47
2022-08-09T05:24:44.859Z,88.61
2022-08-09T05:25:44.905Z,87.01
2022-08-09T05:26:45.948Z,85.25
2022-08-09T05:27:46.314Z,84.07
2022-08-09T05:28:44.976Z,82.62
2022-08-09T05:29:45.016Z,81.17
2022-08-09T05:30:47.906Z,80.46
2022-08-09T05:31:49.150Z,80.66
2022-08-09T05:32:45.168Z,80.57
2022-08-09T05:33:45.210Z,80.22
2022-08-09T05:34:45.811Z,79.28
2022-08-09T05:35:46.871Z,79.08
2022-08-09T05:36:46.929Z,78.23
2022-08-09T05:37:47.558Z,77.29
2022-08-09T05:38:46.149Z,77.09
2022-08-09T05:39:45.403Z,76.79
2022-08-09T05:40:48.827Z,76.45
2022-08-09T05:41:45.472Z,76.89
2022-08-09T05:42:45.525Z,76.69
2022-08-09T05:43:49.080Z,76.05
2022-08-09T05:44:45.558Z,75.51
2022-08-09T05:45:55.868Z,74.68
2022-08-09T05:46:45.642Z,73.44
2022-08-09T05:47:52.300Z,73.10
2022-08-09T05:48:48.729Z,72.50
2022-08-09T05:50:29.829Z,72.40
2022-08-09T05:50:51.041Z,71.86
2022-08-09T05:51:46.351Z,71.86
2022-08-09T05:52:53.562Z,71.63
2022-08-09T05:53:56.684Z,70.59
2022-08-09T05:54:45.796Z,70.36
2022-08-09T05:55:45.870Z,69.23
2022-08-09T05:56:54.610Z,68.93
2022-08-09T05:57:55.572Z,68.49
2022-08-09T05:58:45.929Z,67.36
2022-08-09T05:59:45.974Z,67.16
2022-08-09T06:00:46.013Z,67.16
2022-08-09T06:01:46.082Z,66.96
2022-08-09T06:02:46.396Z,66.53
2022-08-09T06:03:58.193Z,65.96
2022-08-09T06:04:46.375Z,67.22
2022-08-09T06:05:54.625Z,68.66
2022-08-09T06:06:49.711Z,68.96
2022-08-09T06:07:49.567Z,69.26
2022-08-09T06:08:52.513Z,68.66
2022-08-09T06:10:01.916Z,68.62
2022-08-09T06:10:46.377Z,68.09
2022-08-09T06:11:57.417Z,67.26
2022-08-09T06:12:50.402Z,67.56
2022-08-09T06:13:47.478Z,66.13
2022-08-09T06:14:46.538Z,65.30
2022-08-09T06:15:46.814Z,65.53
2022-08-09T06:16:52.416Z,66.46
2022-08-09T06:17:47.531Z,66.23
2022-08-09T06:18:46.669Z,65.83
2022-08-09T06:19:46.720Z,65.73
2022-08-09T06:20:50.056Z,65.53
2022-08-09T06:21:50.537Z,65.13
2022-08-09T06:22:46.788Z,64.90
2022-08-09T06:23:58.951Z,64.40
2022-08-09T06:24:46.871Z,64.37
2022-08-09T06:25:46.893Z,64.37
2022-08-09T06:26:46.932Z,63.24
2022-08-09T06:27:51.631Z,63.74
2022-08-09T06:28:47.005Z,63.94
2022-08-09T06:29:47.747Z,63.11
2022-08-09T06:30:47.038Z,62.59
2022-08-09T06:32:17.269Z,61.99
2022-08-09T06:32:53.563Z,61.66
2022-08-09T06:33:53.021Z,61.36
2022-08-09T06:34:50.102Z,60.90
2022-08-09T06:35:56.917Z,60.40
2022-08-09T06:36:47.258Z,60.08
2022-08-09T06:37:49.851Z,59.15
2022-08-09T06:38:50.398Z,58.95
2022-08-09T06:39:57.937Z,59.31
2022-08-09T06:40:47.374Z,60.21
2022-08-09T06:42:08.698Z,59.78
2022-08-09T06:42:47.431Z,59.78
2022-08-09T06:43:47.383Z,59.05
2022-08-09T06:44:47.431Z,57.83
2022-08-09T06:46:06.167Z,58.03
2022-08-09T06:46:47.512Z,57.81
2022-08-09T06:47:47.524Z,57.41
2022-08-09T06:48:47.572Z,56.51
2022-08-09T06:50:14.408Z,57.56
2022-08-09T06:50:47.606Z,58.03
2022-08-09T06:51:47.607Z,58.03
2022-08-09T06:52:48.772Z,57.14
2022-08-09T06:53:49.890Z,57.73
2022-08-09T06:54:47.665Z,57.08
2022-08-09T06:55:48.376Z,56.68
2022-08-09T06:56:47.756Z,55.79
2022-08-09T06:58:02.956Z,55.79
2022-08-09T07:00:49.063Z,55.17
2022-08-09T07:00:51.879Z,55.29
2022-08-09T07:00:58.527Z,55.22
2022-08-09T07:01:54.052Z,56.79
2022-08-09T07:02:48.004Z,58.22
2022-08-09T07:03:52.475Z,58.37
2022-08-09T07:04:48.055Z,58.64
2022-08-09T07:06:03.028Z,57.52
2022-08-09T07:06:48.156Z,57.92
2022-08-09T07:07:58.577Z,57.19
2022-08-09T07:08:49.669Z,56.77
2022-08-09T07:09:55.070Z,55.94
2022-08-09T07:10:48.256Z,55.12
2022-08-09T07:11:52.207Z,54.72
2022-08-09T07:12:57.480Z,55.27
2022-08-09T07:14:04.458Z,56.89
2022-08-09T07:14:51.211Z,56.30
2022-08-09T07:16:34.955Z,56.67
2022-08-09T07:16:53.536Z,55.44
2022-08-09T07:17:56.072Z,55.57
2022-08-09T07:18:50.037Z,55.22
2022-08-09T07:19:50.912Z,54.87
2022-08-09T07:20:48.724Z,53.36
2022-08-09T07:21:55.789Z,53.68
2022-08-09T07:22:53.264Z,53.66
2022-08-09T07:23:58.058Z,53.33
2022-08-09T07:24:49.466Z,52.44
2022-08-09T07:25:52.452Z,53.01
2022-08-09T07:26:50.761Z,51.99
2022-08-09T07:27:53.335Z,51.89
2022-08-09T07:29:09.349Z,51.67
2022-08-09T07:29:49.038Z,51.35
2022-08-09T07:30:49.107Z,52.24
2022-08-09T07:31:49.088Z,52.96
2022-08-09T07:32:51.523Z,54.60
2022-08-09T07:33:52.796Z,53.92
2022-08-09T07:34:49.148Z,52.41
2022-08-09T07:35:54.079Z,52.41
2022-08-09T07:36:49.257Z,51.70
2022-08-09T07:37:49.433Z,52.09
2022-08-09T07:38:58.231Z,51.60
2022-08-09T07:39:49.351Z,52.02
2022-08-09T07:41:10.120Z,51.50
2022-08-09T07:41:49.355Z,51.72
2022-08-09T07:42:50.119Z,52.61
2022-08-09T07:43:49.949Z,51.79
2022-08-09T07:44:51.852Z,51.40
2022-08-09T07:45:49.456Z,50.76
2022-08-09T07:46:49.467Z,50.63
2022-08-09T07:48:00.582Z,49.84
2022-08-09T07:48:58.799Z,49.42
2022-08-09T07:50:05.392Z,49.62
2022-08-09T07:50:53.184Z,49.62
2022-08-09T07:52:04.895Z,49.69
2022-08-09T07:52:49.666Z,49.05
2022-08-09T07:54:07.308Z,49.35
2022-08-09T07:54:51.403Z,49.47
2022-08-09T07:56:03.319Z,50.09
2022-08-09T07:56:50.251Z,50.31
2022-08-09T07:57:49.761Z,50.48
2022-08-09T07:58:49.763Z,49.17
2022-08-09T07:59:58.674Z,48.75
2022-08-09T08:00:58.720Z,48.85
2022-08-09T08:01:53.022Z,48.51
2022-08-09T08:02:49.824Z,48.27
2022-08-09T08:03:49.875Z,47.25
2022-08-09T08:04:53.706Z,46.26
2022-08-09T08:05:53.872Z,48.21
2022-08-09T08:06:56.335Z,47.99
2022-08-09T08:08:06.193Z,47.43
2022-08-09T08:09:03.248Z,46.07
2022-08-09T08:10:05.686Z,47.38
2022-08-09T08:11:03.180Z,47.08
2022-08-09T08:12:25.010Z,47.16
2022-08-09T08:12:50.232Z,46.64
2022-08-09T08:13:57.345Z,46.52
2022-08-09T08:14:50.300Z,45.83
2022-08-09T08:15:50.310Z,45.53
2022-08-09T08:17:00.396Z,46.22
2022-08-09T08:17:53.436Z,46.03
2022-08-09T08:18:50.412Z,45.73
2022-08-09T08:19:50.462Z,46.07
2022-08-09T08:20:50.513Z,46.59
2022-08-09T08:21:52.669Z,47.81
2022-08-09T08:22:50.613Z,48.53
2022-08-09T08:23:56.091Z,48.51
2022-08-09T08:24:50.947Z,47.89
2022-08-09T08:26:06.198Z,47.79
2022-08-09T08:26:55.645Z,46.76
2022-08-09T08:27:50.881Z,46.48
2022-08-09T08:28:50.932Z,46.98
2022-08-09T08:29:52.373Z,47.72
2022-08-09T08:30:50.791Z,47.79
2022-08-09T08:32:04.029Z,47.65
2022-08-09T08:32:52.581Z,46.34
2022-08-09T08:33:52.838Z,45.78
2022-08-09T08:34:51.955Z,46.83
2022-08-09T08:35:58.567Z,47.94
2022-08-09T08:36:51.091Z,47.50
2022-08-09T08:38:01.834Z,46.69
2022-08-09T08:38:51.126Z,46.96
2022-08-09T08:39:51.327Z,47.28
2022-08-09T08:40:51.227Z,47.38
2022-08-09T08:41:52.355Z,47.89
2022-08-09T08:42:51.288Z,47.79
2022-08-09T08:43:51.345Z,47.97
2022-08-09T08:44:51.345Z,47.87
2022-08-09T08:46:00.100Z,48.41
2022-08-09T08:47:02.711Z,48.78
2022-08-09T08:47:51.390Z,47.45
2022-08-09T08:48:53.527Z,47.03
2022-08-09T08:49:51.464Z,46.72
2022-08-09T08:50:52.001Z,46.52
2022-08-09T08:52:00.164Z,46.62
2022-08-09T08:52:58.148Z,46.40
2022-08-09T08:54:03.765Z,46.03
2022-08-09T08:54:51.760Z,46.50
2022-08-09T08:55:52.552Z,45.83
2022-08-09T08:56:51.772Z,46.25
2022-08-09T08:57:57.342Z,45.21
2022-08-09T08:58:51.820Z,45.21
2022-08-09T08:59:53.958Z,46.37
2022-08-09T09:00:56.373Z,47.28
2022-08-09T09:01:57.223Z,47.38
2022-08-09T09:02:52.667Z,46.96
2022-08-09T09:03:52.116Z,46.76
2022-08-09T09:04:52.832Z,46.66
2022-08-09T09:06:01.234Z,46.34
2022-08-09T09:06:52.117Z,46.12
2022-08-09T09:07:52.169Z,45.71
2022-08-09T09:08:52.815Z,45.51
2022-08-09T09:10:01.559Z,44.51
2022-08-09T09:10:52.299Z,44.60
2022-08-09T09:11:52.399Z,43.91
2022-08-09T09:12:53.251Z,44.43
2022-08-09T09:13:56.489Z,45.06
2022-08-09T09:14:52.470Z,45.46
2022-08-09T09:15:52.520Z,45.75
2022-08-09T09:16:52.553Z,45.85
2022-08-09T09:17:53.123Z,45.24
2022-08-09T09:19:06.375Z,45.26
2022-08-09T09:19:52.657Z,45.87
2022-08-09T09:20:52.713Z,46.07
2022-08-09T09:21:52.775Z,44.96
2022-08-09T09:22:52.826Z,44.87
2022-08-09T09:23:58.203Z,45.06
2022-08-09T09:24:55.541Z,45.16
2022-08-09T09:26:04.630Z,45.65
2022-08-09T09:26:52.919Z,45.12
2022-08-09T09:28:03.519Z,43.62
2022-08-09T09:29:03.740Z,43.24
2022-08-09T09:30:11.562Z,44.06
2022-08-09T09:30:52.988Z,44.45
2022-08-09T09:32:03.630Z,43.82
2022-08-09T09:32:53.060Z,43.60
2022-08-09T09:33:56.984Z,43.91
2022-08-09T09:34:53.094Z,44.29
2022-08-09T09:36:01.585Z,43.18
2022-08-09T09:36:54.754Z,42.99
2022-08-09T09:37:53.163Z,42.89
2022-08-09T09:38:53.223Z,43.30
2022-08-09T09:39:56.959Z,43.23
2022-08-09T09:40:53.205Z,43.24
2022-08-09T09:41:54.270Z,44.37
2022-08-09T09:42:53.255Z,44.98
2022-08-09T09:44:10.832Z,44.87
2022-08-09T09:44:53.350Z,44.33
2022-08-09T09:46:53.386Z,44.27
2022-08-09T09:47:56.730Z,44.94
2022-08-09T09:48:53.375Z,44.35
2022-08-09T09:50:15.698Z,44.06
2022-08-09T09:50:53.369Z,43.74
2022-08-09T09:51:53.401Z,43.52
2022-08-09T09:52:56.522Z,42.76
2022-08-09T09:54:01.179Z,42.46
2022-08-09T09:54:55.197Z,42.93
2022-08-09T09:56:04.579Z,42.97
2022-08-09T09:58:01.051Z,42.83
2022-08-09T09:58:03.009Z,42.87
2022-08-09T09:58:53.613Z,42.24
2022-08-09T09:59:53.633Z,42.52
2022-08-09T10:00:58.469Z,42.41
2022-08-09T10:01:53.854Z,41.61
2022-08-09T10:02:53.746Z,42.02
2022-08-09T10:03:57.960Z,42.02
2022-08-09T10:04:53.875Z,42.20
2022-08-09T10:06:03.849Z,40.72
2022-08-09T10:06:54.414Z,41.83
2022-08-09T10:08:10.723Z,41.63
2022-08-09T10:08:57.397Z,41.41
2022-08-09T10:09:55.075Z,41.39
2022-08-09T10:10:54.020Z,41.17
2022-08-09T10:12:07.842Z,40.72
2022-08-09T10:12:54.387Z,40.72
2022-08-09T10:13:54.101Z,41.33
2022-08-09T10:14:54.174Z,41.11
2022-08-09T10:16:55.703Z,41.11
2022-08-09T10:16:58.093Z,41.41
2022-08-09T10:17:56.756Z,40.31
2022-08-09T10:18:54.630Z,41.11
2022-08-09T10:19:57.207Z,42.14
2022-08-09T10:20:54.337Z,42.04
2022-08-09T10:21:54.385Z,42.02
2022-08-09T10:23:00.466Z,41.14
2022-08-09T10:23:54.435Z,41.02
2022-08-09T10:24:54.466Z,41.09
2022-08-09T10:26:06.765Z,40.51
2022-08-09T10:26:54.597Z,41.00
2022-08-09T10:27:56.808Z,41.09
2022-08-09T10:29:35.961Z,40.70
2022-08-09T10:30:43.878Z,39.92
2022-08-09T10:32:55.169Z,40.39
2022-08-09T10:34:11.492Z,40.29
2022-08-09T10:34:54.861Z,40.70
2022-08-09T10:35:54.902Z,41.08
2022-08-09T10:36:54.962Z,40.37
2022-08-09T10:37:55.022Z,40.16
2022-08-09T10:38:59.935Z,39.66
2022-08-09T10:39:55.155Z,39.56
2022-08-09T10:40:56.449Z,40.17
2022-08-09T10:41:55.152Z,40.11
2022-08-09T10:42:55.155Z,40.51
2022-08-09T10:43:59.621Z,40.39
2022-08-09T10:44:55.266Z,40.98
2022-08-09T10:45:59.996Z,40.16
2022-08-09T10:46:57.696Z,38.98
2022-08-09T10:48:20.351Z,39.56
2022-08-09T10:48:55.349Z,39.98
2022-08-09T10:49:55.319Z,40.06
2022-08-09T10:50:55.349Z,39.66
2022-08-09T10:51:55.351Z,40.69
2022-08-09T10:52:55.401Z,40.03
2022-08-09T10:53:55.483Z,39.86
2022-08-09T10:54:55.504Z,40.35
2022-08-09T10:56:00.071Z,40.25
2022-08-09T10:56:55.653Z,40.45
2022-08-09T10:58:00.072Z,40.41
2022-08-09T10:58:55.613Z,40.00
2022-08-09T10:59:58.356Z,39.60
2022-08-09T11:03:02.961Z,39.80
2022-08-09T11:03:13.129Z,39.07
2022-08-09T11:03:16.003Z,38.60
2022-08-09T11:03:59.906Z,38.96
2022-08-09T11:04:56.682Z,39.37
2022-08-09T11:06:00.547Z,38.76
2022-08-09T11:06:55.817Z,38.48
2022-08-09T11:07:58.182Z,38.68
2022-08-09T11:09:15.346Z,39.09
2022-08-09T11:09:56.526Z,39.01
2022-08-09T11:10:59.817Z,40.11
2022-08-09T11:11:55.848Z,40.09
2022-08-09T11:12:55.850Z,40.41
2022-08-09T11:13:55.860Z,39.72
2022-08-09T11:14:57.318Z,40.43
2022-08-09T11:16:04.796Z,40.11
2022-08-09T11:16:55.922Z,40.21
2022-08-09T11:18:02.973Z,39.72
2022-08-09T11:18:56.508Z,38.88
2022-08-09T11:20:11.229Z,38.56
2022-08-09T11:20:56.085Z,38.85
2022-08-09T11:22:05.280Z,38.76
2022-08-09T11:22:58.423Z,38.66
2022-08-09T11:23:56.186Z,39.09
2022-08-09T11:24:56.249Z,39.19
2022-08-09T11:25:56.247Z,39.37
2022-08-09T11:26:56.248Z,38.96
2022-08-09T11:28:05.224Z,37.78
2022-08-09T11:28:57.289Z,38.19
2022-08-09T11:30:06.325Z,38.68
2022-08-09T11:30:56.377Z,39.19
2022-08-09T11:31:56.411Z,38.90
2022-08-09T11:32:56.470Z,38.78
2022-08-09T11:33:56.510Z,38.90
2022-08-09T11:34:56.511Z,38.31
2022-08-09T11:35:56.543Z,38.60
2022-08-09T11:36:56.716Z,38.39
2022-08-09T11:37:56.603Z,38.46
2022-08-09T11:38:56.844Z,38.46
2022-08-09T11:39:56.721Z,37.86
2022-08-09T11:40:56.716Z,37.88
2022-08-09T11:41:58.896Z,37.68
2022-08-09T11:42:56.766Z,37.78
2022-08-09T11:43:56.806Z,37.37
2022-08-09T11:44:57.315Z,37.58
2022-08-09T11:45:57.622Z,37.99
2022-08-09T11:46:56.826Z,37.90
2022-08-09T11:48:00.024Z,38.39
2022-08-09T11:48:56.829Z,38.58
2022-08-09T11:50:53.757Z,38.19
2022-08-09T11:51:38.081Z,38.31
2022-08-09T11:53:02.380Z,39.48
2022-08-09T11:53:15.842Z,38.88
2022-08-09T11:53:58.551Z,39.19
2022-08-09T11:54:57.003Z,39.27
2022-08-09T11:56:02.238Z,38.48
2022-08-09T11:56:57.083Z,39.09
2022-08-09T11:58:02.365Z,39.29
2022-08-09T11:58:57.135Z,38.21
2022-08-09T11:59:57.185Z,38.60
2022-08-09T12:00:57.225Z,39.40
2022-08-09T12:02:16.204Z,38.82
2022-08-09T12:02:57.749Z,38.31
2022-08-09T12:03:58.366Z,38.88
2022-08-09T12:04:59.045Z,38.09
2022-08-09T12:05:57.278Z,38.58
2022-08-09T12:06:57.785Z,38.19
2022-08-09T12:07:57.333Z,38.09
2022-08-09T12:08:57.424Z,38.80
2022-08-09T12:09:57.401Z,39.09
2022-08-09T12:10:57.363Z,38.60
2022-08-09T12:12:02.174Z,39.21
2022-08-09T12:12:57.477Z,39.01
2022-08-09T12:14:07.077Z,39.52
2022-08-09T12:15:07.281Z,39.84
2022-08-09T12:15:57.613Z,39.44
2022-08-09T12:16:58.273Z,39.05
2022-08-09T12:17:57.683Z,39.76
2022-08-09T12:18:57.734Z,39.37
2022-08-09T12:19:59.713Z,40.05
2022-08-09T12:20:59.150Z,39.95
2022-08-09T12:21:57.856Z,40.45
2022-08-09T12:22:57.906Z,40.45
2022-08-09T12:24:08.609Z,40.53
2022-08-09T12:24:57.907Z,39.92
2022-08-09T12:25:57.957Z,38.92
2022-08-09T12:29:10.809Z,39.03
2022-08-09T12:29:12.313Z,39.84
2022-08-09T12:29:29.463Z,39.82
2022-08-09T12:30:02.045Z,39.31
2022-08-09T12:30:57.959Z,38.70
2022-08-09T12:32:03.232Z,38.09
2022-08-09T12:32:58.074Z,37.99
2022-08-09T12:34:01.081Z,37.90
2022-08-09T12:34:58.162Z,38.21
2022-08-09T12:35:58.223Z,38.82
2022-08-09T12:36:58.874Z,38.90
2022-08-09T12:37:58.334Z,38.07
2022-08-09T12:38:58.395Z,37.76
2022-08-09T12:39:58.413Z,36.76
2022-08-09T12:40:58.474Z,36.78
2022-08-09T12:41:58.526Z,37.99
2022-08-09T12:42:58.527Z,38.48
2022-08-09T12:44:06.801Z,38.82
2022-08-09T12:44:59.515Z,38.42
2022-08-09T12:45:59.687Z,38.11
2022-08-09T12:46:58.658Z,38.29
2022-08-09T12:47:58.689Z,37.96
2022-08-09T12:48:58.720Z,37.65
2022-08-09T12:49:58.762Z,36.66
2022-08-09T12:50:59.695Z,37.37
2022-08-09T12:52:02.022Z,37.09
2022-08-09T12:53:08.954Z,37.40
2022-08-09T12:53:58.991Z,37.09
2022-08-09T12:56:11.727Z,37.66
2022-08-09T12:56:14.330Z,37.48